Station: Perisher Valley  

  Atmospheric Gas Attenuation - ITU Rec 676-11   ----------------- dB/100km -----------------
Date Time Temp RH % AH g/m3 Dew Point Wind Direction Speed kph Gust kph Barometer mB Rainfall Since 9am 24GHz 47GHz 76GHz 122GHz 134GHz 241GHz
02/09 19:40 6.1 87 6.36 4.1 33 61 1013.1 0 15.1 24.4 34.3 89.7 77.3 263.4
02/09 19:30 6.1 88 6.43 4.3 30 61 1013.1 0 15.3 24.5 34.6 90.5 78.2 266.7
02/09 19:20 6.2 86 6.33 4 20 56 1013.1 0 15.0 24.3 34.2 89.3 76.7 261.6
02/09 19:10 6.2 88 6.48 4.4 41 72 1013.1 0 15.4 24.6 34.8 90.9 78.8 268.7
02/09 19:00 6.1 91 6.65 4.7 39 69 1013.1 0 15.7 24.9 35.5 92.9 81.2 277.1
02/09 18:50 6 88 6.39 4.2 44 83 1013.1 0 15.2 24.5 34.5 90.2 77.8 265.1
02/09 18:40 6 91 6.61 4.6 46 72 1013.1 0 15.7 24.8 35.4 92.6 80.7 275.6
02/09 18:30 6.1 88 6.43 4.3 44 83 1013.1 0 15.3 24.5 34.6 90.5 78.2 266.7
02/09 18:20 6.2 87 6.4 4.2 50 93 1013.1 0 15.2 24.4 34.4 90.1 77.7 264.9
02/09 18:10 6.2 89 6.55 4.5 39 70 1013.1 0 15.5 24.7 35.1 91.7 79.7 272.0
02/09 18:00 6.1 93 6.8 5.1 37 76 1013.1 0 16.1 25.1 36.1 94.6 83.2 284.3
02/09 17:50 6.1 91 6.65 4.7 37 74 1013.1 0 15.7 24.9 35.5 92.9 81.2 277.1
02/09 17:40 6.1 92 6.73 4.9 41 76 1013.1 0 15.9 25.0 35.8 93.8 82.3 280.9
02/09 17:30 6.2 90 6.62 4.7 43 70 1013.1 0 15.7 24.8 35.3 92.5 80.7 275.3
02/09 17:20 6.3 87 6.44 4.3 41 76 1013.1 0 15.3 24.5 34.6 90.4 78.1 266.5
02/09 17:10 6.5 86 6.45 4.3 43 70 1013.1 0 15.3 24.4 34.5 90.3 78.1 266.3
02/09 17:00 6.7 79 6.01 3.3 39 78 1013.1 0 14.3 23.7 32.7 85.3 72.0 245.1
02/09 16:50 6.4 84 6.26 3.9 41 70 1013.1 0 14.9 24.2 33.8 88.3 75.6 257.7
02/09 16:40 6.4 84 6.26 3.9 37 63 1013.1 0 14.9 24.2 33.8 88.3 75.6 257.7
02/09 16:30 6.3 86 6.37 4.1 39 72 1013.1 0 15.1 24.4 34.3 89.6 77.2 263.2
02/09 16:20 6.3 90 6.67 4.8 41 70 1013.1 0 15.8 24.9 35.5 92.9 81.2 277.4
02/09 16:10 6.3 89 6.59 4.6 35 56 1013.1 0 15.6 24.7 35.2 92.0 80.2 273.6
02/09 16:00 6.5 84 6.3 4 41 67 1013.1 0 15.0 24.2 33.9 88.6 76.1 259.2
02/09 15:50 6.4 87 6.49 4.4 41 63 1013.1 0 15.4 24.5 34.7 90.8 78.7 268.5
02/09 15:40 6.7 82 6.23 3.9 44 72 1013.1 0 14.8 24.0 33.5 87.7 74.9 255.3
02/09 15:30 6.6 82 6.19 3.8 48 69 1013.1 0 14.7 24.0 33.4 87.3 74.5 253.8
02/09 15:20 6.5 85 6.38 4.2 48 70 1013.1 0 15.1 24.3 34.2 89.5 77.1 263.0
02/09 15:10 6.4 86 6.41 4.2 44 67 1013.1 0 15.2 24.4 34.4 89.9 77.6 264.7
02/09 15:00 6.4 90 6.71 4.9 41 78 1013.1 0 15.9 24.9 35.6 93.2 81.7 278.9
02/09 14:50 6.5 88 6.6 4.7 43 70 1013.1 0 15.6 24.7 35.1 91.9 80.1 273.3
02/09 14:40 6.6 83 6.27 3.9 39 67 1013.1 0 14.9 24.1 33.7 88.2 75.6 257.5
02/09 14:30 6.2 90 6.62 4.7 35 63 1013.1 0 15.7 24.8 35.3 92.5 80.7 275.3
02/09 14:20 6.3 89 6.59 4.6 39 69 1013.1 0 15.6 24.7 35.2 92.0 80.2 273.6
02/09 14:10 6.3 88 6.52 4.4 33 46 1013.1 0 15.5 24.6 34.9 91.3 79.2 270.2
02/09 14:00 6.4 83 6.19 3.7 35 70 1013.1 0 14.7 24.0 33.5 87.6 74.7 254.4
02/09 13:50 6.5 84 6.3 4 24 37 1013.1 0 15.0 24.2 33.9 88.6 76.1 259.2
02/09 13:40 6.7 82 6.23 3.9 50 76 1013.1 0 14.8 24.0 33.5 87.7 74.9 255.3
02/09 13:30 7 76 5.89 3.1 50 83 1013.1 0 14.1 23.4 32.1 83.7 70.2 238.7
02/09 13:20 7.1 75 5.85 3 41 72 1013.1 0 14.0 23.3 31.9 83.2 69.6 236.5
02/09 13:10 7.3 73 5.77 2.8 46 65 1013.1 0 13.8 23.1 31.5 82.1 68.4 232.3
02/09 13:00 6.8 78 5.97 3.2 44 82 1013.1 0 14.2 23.6 32.5 84.8 71.4 242.9
02/09 12:50 6.7 78 5.93 3.1 44 69 1013.1 0 14.2 23.6 32.3 84.5 71.0 241.4
02/09 12:40 7.1 78 6.09 3.5 48 72 1013.1 0 14.5 23.7 32.8 85.7 72.7 247.5
02/09 12:30 6.6 82 6.19 3.8 46 70 1013.1 0 14.7 24.0 33.4 87.3 74.5 253.8
02/09 12:20 6.9 79 6.08 3.5 43 72 1013.1 0 14.5 23.7 32.9 85.8 72.8 247.7
02/09 12:10 6.7 81 6.16 3.7 37 67 1013.1 0 14.7 23.9 33.3 86.9 74.0 252.0
02/09 12:00 7 81 6.28 4 32 56 1013.1 0 14.9 24.0 33.6 87.9 75.3 256.6
02/09 11:50 7.1 80 6.24 3.9 30 61 1013.1 0 14.8 23.9 33.4 87.3 74.7 254.5
02/09 11:40 7.2 79 6.2 3.8 26 54 1013.1 0 14.7 23.9 33.2 86.8 74.0 252.3
02/09 11:30 6.8 83 6.35 4.1 26 46 1013.1 0 15.1 24.2 34.0 88.8 76.4 260.6
02/09 11:20 6.5 84 6.3 4 30 56 1013.1 0 15.0 24.2 33.9 88.6 76.1 259.2
02/09 11:10 6.7 82 6.23 3.9 32 63 1013.1 0 14.8 24.0 33.5 87.7 74.9 255.3
02/09 11:00 6.8 82 6.27 3.9 35 59 1013.1 0 14.9 24.1 33.7 88.0 75.4 256.8
02/09 10:50 6.6 84 6.34 4.1 30 56 1013.1 0 15.1 24.2 34.0 89.0 76.5 260.8
02/09 10:40 6.2 86 6.33 4 33 63 1013.1 0 15.0 24.3 34.2 89.3 76.7 261.6
02/09 10:30 6.5 87 6.53 4.5 33 63 1013.1 0 15.5 24.6 34.8 91.1 79.1 270.0
02/09 10:20 6.3 87 6.44 4.3 30 63 1013.1 0 15.3 24.5 34.6 90.4 78.1 266.5
02/09 10:10 6.8 86 6.58 4.6 35 54 1013.1 0 15.6 24.6 34.9 91.3 79.5 271.3
02/09 10:00 6.8 84 6.43 4.3 37 69 1013.1 0 15.2 24.3 34.3 89.7 77.5 264.3
02/09 09:50 6.1 90 6.58 4.6 33 61 1013.1 0 15.6 24.8 35.2 92.2 80.2 273.8
02/09 09:40 5.8 92 6.59 4.6 28 54 1013.1 0 15.6 24.9 35.4 92.6 80.7 275.3
02/09 09:30 5.7 97 6.91 5.3 28 57 1013.1 0 16.3 25.4 36.8 96.3 85.2 291.1
02/09 09:20 5.7 100 7.12 5.7 28 50 1013.1 0 16.8 25.8 37.7 98.7 88.1 301.3
02/09 09:10 5.2 100 6.89 5.2 32 61 1013.1 0 16.3 25.5 36.9 96.7 85.5 292.0
02/09 09:00 4.9 100 6.76 4.9 22 41 1013.1 0 16.0 25.4 36.5 95.6 84.0 286.8
02/09 08:50 4.9 100 6.76 4.9 22 44 1013.1 3.6 16.0 25.4 36.5 95.6 84.0 286.8
02/09 08:40 5 100 6.8 5 22 44 1013.1 3.6 16.1 25.5 36.6 95.9 84.4 288.3
02/09 08:30 4.7 100 6.67 4.7 26 59 1013.1 3.6 15.8 25.3 36.2 94.8 82.9 283.1
02/09 08:20 4.8 100 6.71 4.8 24 59 1013.1 3.6 15.9 25.4 36.3 95.2 83.4 284.7
02/09 08:10 4.8 100 6.71 4.8 30 56 1013.1 3.6 15.9 25.4 36.3 95.2 83.4 284.7
02/09 08:00 4.8 98 6.58 4.5 28 50 1013.1 3.6 15.6 25.1 35.8 93.7 81.6 278.4
02/09 07:50 4.8 97 6.51 4.4 24 50 1013.1 3.6 15.5 25.0 35.5 92.9 80.6 275.0
02/09 07:40 4.8 96 6.44 4.2 22 50 1013.1 3.6 15.3 24.9 35.2 92.1 79.7 271.6
02/09 07:30 4.8 95 6.38 4.1 28 57 1013.1 3.6 15.2 24.8 35.0 91.5 78.8 268.7
02/09 07:20 4.9 93 6.28 3.9 39 67 1013.1 3.6 15.0 24.6 34.5 90.2 77.4 263.6
02/09 07:10 4.7 95 6.33 4 43 72 1013.1 3.6 15.1 24.7 34.8 91.0 78.3 266.7
02/09 07:00 4.8 93 6.24 3.8 48 80 1013.1 3.6 14.9 24.6 34.4 89.9 76.9 262.0
02/09 06:50 4.8 93 6.24 3.8 33 67 1013.1 3.6 14.9 24.6 34.4 89.9 76.9 262.0
02/09 06:40 4.6 95 6.29 3.9 22 59 1013.1 3.6 15.0 24.7 34.7 90.7 77.8 265.1
02/09 06:30 4.6 95 6.29 3.9 24 52 1013.1 3.6 15.0 24.7 34.7 90.7 77.8 265.1
02/09 06:20 4.5 97 6.38 4.1 24 46 1013.1 3.6 15.2 24.9 35.1 91.8 79.1 269.8
02/09 06:10 4.5 96 6.32 3.9 26 65 1013.1 3.6 15.1 24.8 34.9 91.2 78.3 266.9
02/09 06:00 4.6 95 6.29 3.9 33 61 1013.1 3.6 15.0 24.7 34.7 90.7 77.8 265.1
02/09 05:50 4.7 93 6.2 3.7 33 69 1013.1 3.6 14.8 24.5 34.3 89.6 76.5 260.5
02/09 05:40 4.8 91 6.11 3.5 30 69 1013.1 3.6 14.6 24.4 33.9 88.5 75.2 255.8
02/09 05:30 4.7 95 6.33 4 30 54 1013.1 3.6 15.1 24.7 34.8 91.0 78.3 266.7
02/09 05:20 4.6 98 6.49 4.3 24 57 1013.1 3.6 15.5 25.0 35.5 92.9 80.6 274.7
02/09 05:10 4.7 97 6.47 4.3 22 48 1013.1 3.6 15.4 25.0 35.4 92.6 80.2 273.4
02/09 05:00 4.8 93 6.24 3.8 24 48 1013.1 3.6 14.9 24.6 34.4 89.9 76.9 262.0
02/09 04:50 4.9 91 6.15 3.6 28 56 1013.1 3.6 14.7 24.4 34.0 88.8 75.6 257.4
02/09 04:40 4.7 93 6.2 3.7 24 48 1013.1 3.6 14.8 24.5 34.3 89.6 76.5 260.5
02/09 04:30 4.6 93 6.16 3.6 22 52 1013.1 3.6 14.7 24.5 34.1 89.3 76.0 258.9
02/09 04:20 4.7 95 6.33 4 15 39 1013.1 3.6 15.1 24.7 34.8 91.0 78.3 266.7
02/09 04:10 4.4 100 6.53 4.4 9 26 1013.1 3.6 15.6 25.2 35.8 93.6 81.3 277.4
02/09 04:00 4.5 99 6.51 4.4 33 57 1013.1 3.6 15.5 25.1 35.6 93.3 80.9 276.1
02/09 03:50 4.7 97 6.47 4.3 35 59 1013.1 3.6 15.4 25.0 35.4 92.6 80.2 273.4
02/09 03:40 4.8 96 6.44 4.2 35 63 1013.1 3.6 15.3 24.9 35.2 92.1 79.7 271.6
02/09 03:30 4.8 99 6.64 4.7 22 50 1013.1 3.6 15.8 25.2 36.1 94.4 82.4 281.3
02/09 03:20 4.8 100 6.71 4.8 35 67 1013.1 3.6 15.9 25.4 36.3 95.2 83.4 284.7
02/09 03:10 4.9 100 6.76 4.9 43 69 1013.1 3.6 16.0 25.4 36.5 95.6 84.0 286.8

Last Refresh: 02-Sep-2026 19:15:21

Bureau of Meteorology